sensor_id;sensor_type;location;lat;lon;timestamp;temperature;humidity
11772;DHT22;12556;55.748;13.194;2023-05-20T00:00:12;7.40;92.40
11772;DHT22;12556;55.748;13.194;2023-05-20T00:02:39;7.30;92.50
11772;DHT22;12556;55.748;13.194;2023-05-20T00:05:07;7.30;92.60
11772;DHT22;12556;55.748;13.194;2023-05-20T00:07:34;7.30;92.80
11772;DHT22;12556;55.748;13.194;2023-05-20T00:10:01;7.20;92.90
11772;DHT22;12556;55.748;13.194;2023-05-20T00:12:29;8.00;93.40
11772;DHT22;12556;55.748;13.194;2023-05-20T00:14:56;7.10;93.10
11772;DHT22;12556;55.748;13.194;2023-05-20T00:17:23;7.00;93.30
11772;DHT22;12556;55.748;13.194;2023-05-20T00:19:52;7.00;93.50
11772;DHT22;12556;55.748;13.194;2023-05-20T00:22:19;7.00;93.60
11772;DHT22;12556;55.748;13.194;2023-05-20T00:24:46;7.00;93.70
11772;DHT22;12556;55.748;13.194;2023-05-20T00:27:13;6.90;93.80
11772;DHT22;12556;55.748;13.194;2023-05-20T00:29:42;7.20;94.00
11772;DHT22;12556;55.748;13.194;2023-05-20T00:32:09;8.80;94.70
11772;DHT22;12556;55.748;13.194;2023-05-20T00:34:36;7.00;94.10
11772;DHT22;12556;55.748;13.194;2023-05-20T00:37:03;6.90;94.10
11772;DHT22;12556;55.748;13.194;2023-05-20T00:39:30;6.90;94.30
11772;DHT22;12556;55.748;13.194;2023-05-20T00:41:58;6.90;94.50
11772;DHT22;12556;55.748;13.194;2023-05-20T00:44:27;6.80;94.50
11772;DHT22;12556;55.748;13.194;2023-05-20T00:46:55;6.70;94.30
11772;DHT22;12556;55.748;13.194;2023-05-20T00:49:22;6.60;94.70
11772;DHT22;12556;55.748;13.194;2023-05-20T00:51:50;6.50;94.90
11772;DHT22;12556;55.748;13.194;2023-05-20T00:54:16;6.40;95.10
11772;DHT22;12556;55.748;13.194;2023-05-20T00:56:44;6.50;95.30
11772;DHT22;12556;55.748;13.194;2023-05-20T00:59:12;6.50;95.50
11772;DHT22;12556;55.748;13.194;2023-05-20T01:01:39;6.50;95.60
11772;DHT22;12556;55.748;13.194;2023-05-20T01:04:08;6.40;95.60
11772;DHT22;12556;55.748;13.194;2023-05-20T01:06:35;6.40;95.80
11772;DHT22;12556;55.748;13.194;2023-05-20T01:09:03;6.40;96.00
11772;DHT22;12556;55.748;13.194;2023-05-20T01:11:34;6.30;96.00
11772;DHT22;12556;55.748;13.194;2023-05-20T01:14:05;6.30;96.20
11772;DHT22;12556;55.748;13.194;2023-05-20T01:16:34;6.30;96.30
11772;DHT22;12556;55.748;13.194;2023-05-20T01:19:02;6.30;96.60
11772;DHT22;12556;55.748;13.194;2023-05-20T01:21:33;6.20;96.40
11772;DHT22;12556;55.748;13.194;2023-05-20T01:24:02;6.20;96.50
11772;DHT22;12556;55.748;13.194;2023-05-20T01:26:30;6.10;96.70
11772;DHT22;12556;55.748;13.194;2023-05-20T01:28:57;6.00;96.80
11772;DHT22;12556;55.748;13.194;2023-05-20T01:31:32;5.90;97.00
11772;DHT22;12556;55.748;13.194;2023-05-20T01:34:02;6.40;97.40
11772;DHT22;12556;55.748;13.194;2023-05-20T01:36:30;6.10;97.40
11772;DHT22;12556;55.748;13.194;2023-05-20T01:38:58;5.80;97.40
11772;DHT22;12556;55.748;13.194;2023-05-20T01:41:28;5.70;97.50
11772;DHT22;12556;55.748;13.194;2023-05-20T01:43:56;5.70;97.70
11772;DHT22;12556;55.748;13.194;2023-05-20T01:46:23;6.70;98.30
11772;DHT22;12556;55.748;13.194;2023-05-20T01:48:50;5.70;98.00
11772;DHT22;12556;55.748;13.194;2023-05-20T01:51:17;5.70;98.10
11772;DHT22;12556;55.748;13.194;2023-05-20T01:53:44;5.60;98.10
11772;DHT22;12556;55.748;13.194;2023-05-20T01:56:11;5.60;98.30
11772;DHT22;12556;55.748;13.194;2023-05-20T01:58:39;5.60;98.50
11772;DHT22;12556;55.748;13.194;2023-05-20T02:01:06;5.60;98.60
11772;DHT22;12556;55.748;13.194;2023-05-20T02:03:33;5.60;98.70
11772;DHT22;12556;55.748;13.194;2023-05-20T02:06:00;5.60;98.80
11772;DHT22;12556;55.748;13.194;2023-05-20T02:08:27;5.60;98.90
11772;DHT22;12556;55.748;13.194;2023-05-20T02:10:54;5.70;99.10
11772;DHT22;12556;55.748;13.194;2023-05-20T02:13:21;5.60;99.10
11772;DHT22;12556;55.748;13.194;2023-05-20T02:15:50;7.60;99.90
11772;DHT22;12556;55.748;13.194;2023-05-20T02:18:16;5.80;99.30
11772;DHT22;12556;55.748;13.194;2023-05-20T02:20:44;5.50;99.30
11772;DHT22;12556;55.748;13.194;2023-05-20T02:23:11;5.40;99.40
11772;DHT22;12556;55.748;13.194;2023-05-20T02:25:38;5.30;99.50
11772;DHT22;12556;55.748;13.194;2023-05-20T02:28:06;5.30;99.60
11772;DHT22;12556;55.748;13.194;2023-05-20T02:30:35;5.30;99.60
11772;DHT22;12556;55.748;13.194;2023-05-20T02:33:03;5.60;99.70
11772;DHT22;12556;55.748;13.194;2023-05-20T02:35:31;5.30;99.60
11772;DHT22;12556;55.748;13.194;2023-05-20T02:37:58;5.30;99.60
11772;DHT22;12556;55.748;13.194;2023-05-20T02:40:25;5.40;99.60
11772;DHT22;12556;55.748;13.194;2023-05-20T02:42:52;6.60;99.90
11772;DHT22;12556;55.748;13.194;2023-05-20T02:45:19;5.40;99.40
11772;DHT22;12556;55.748;13.194;2023-05-20T02:47:46;5.50;99.40
11772;DHT22;12556;55.748;13.194;2023-05-20T02:50:14;5.60;99.40
11772;DHT22;12556;55.748;13.194;2023-05-20T02:52:41;5.60;99.20
11772;DHT22;12556;55.748;13.194;2023-05-20T02:55:10;5.60;99.20
11772;DHT22;12556;55.748;13.194;2023-05-20T02:57:37;5.70;99.10
11772;DHT22;12556;55.748;13.194;2023-05-20T03:00:06;5.70;99.10
11772;DHT22;12556;55.748;13.194;2023-05-20T03:02:35;5.80;99.10
11772;DHT22;12556;55.748;13.194;2023-05-20T03:05:03;5.80;98.90
11772;DHT22;12556;55.748;13.194;2023-05-20T03:07:33;5.90;98.90
11772;DHT22;12556;55.748;13.194;2023-05-20T03:10:00;5.90;98.90
11772;DHT22;12556;55.748;13.194;2023-05-20T03:12:30;6.00;98.80
11772;DHT22;12556;55.748;13.194;2023-05-20T03:14:56;6.00;98.70
11772;DHT22;12556;55.748;13.194;2023-05-20T03:17:24;6.00;98.70
11772;DHT22;12556;55.748;13.194;2023-05-20T03:19:53;6.00;98.60
11772;DHT22;12556;55.748;13.194;2023-05-20T03:22:20;6.10;98.70
11772;DHT22;12556;55.748;13.194;2023-05-20T03:24:49;6.10;98.80
11772;DHT22;12556;55.748;13.194;2023-05-20T03:27:17;6.10;98.80
11772;DHT22;12556;55.748;13.194;2023-05-20T03:29:44;6.40;99.00
11772;DHT22;12556;55.748;13.194;2023-05-20T03:32:12;6.20;98.90
11772;DHT22;12556;55.748;13.194;2023-05-20T03:34:39;6.30;98.90
11772;DHT22;12556;55.748;13.194;2023-05-20T03:37:07;6.40;98.90
11772;DHT22;12556;55.748;13.194;2023-05-20T03:39:34;7.50;99.30
11772;DHT22;12556;55.748;13.194;2023-05-20T03:42:02;6.40;98.90
11772;DHT22;12556;55.748;13.194;2023-05-20T03:44:29;7.60;99.30
11772;DHT22;12556;55.748;13.194;2023-05-20T03:46:56;6.50;98.90
11772;DHT22;12556;55.748;13.194;2023-05-20T03:49:23;6.60;99.00
11772;DHT22;12556;55.748;13.194;2023-05-20T03:51:50;6.70;99.00
11772;DHT22;12556;55.748;13.194;2023-05-20T03:54:17;6.70;99.00
11772;DHT22;12556;55.748;13.194;2023-05-20T03:56:44;6.80;99.00
11772;DHT22;12556;55.748;13.194;2023-05-20T03:59:15;7.50;99.30
11772;DHT22;12556;55.748;13.194;2023-05-20T04:01:42;7.00;99.10
11772;DHT22;12556;55.748;13.194;2023-05-20T04:04:09;7.10;99.10
11772;DHT22;12556;55.748;13.194;2023-05-20T04:06:36;7.10;99.10
11772;DHT22;12556;55.748;13.194;2023-05-20T04:09:03;8.00;99.50
11772;DHT22;12556;55.748;13.194;2023-05-20T04:11:30;7.30;99.20
11772;DHT22;12556;55.748;13.194;2023-05-20T04:13:57;7.40;99.20
11772;DHT22;12556;55.748;13.194;2023-05-20T04:16:26;7.50;99.10
11772;DHT22;12556;55.748;13.194;2023-05-20T04:18:54;7.70;99.20
11772;DHT22;12556;55.748;13.194;2023-05-20T04:21:23;7.80;99.20
11772;DHT22;12556;55.748;13.194;2023-05-20T04:23:50;7.90;99.20
11772;DHT22;12556;55.748;13.194;2023-05-20T04:26:17;7.90;99.20
11772;DHT22;12556;55.748;13.194;2023-05-20T04:28:45;8.00;99.20
11772;DHT22;12556;55.748;13.194;2023-05-20T04:31:13;8.10;99.20
11772;DHT22;12556;55.748;13.194;2023-05-20T04:33:41;8.20;99.20
11772;DHT22;12556;55.748;13.194;2023-05-20T04:36:10;8.20;99.40
11772;DHT22;12556;55.748;13.194;2023-05-20T04:38:40;8.30;99.40
11772;DHT22;12556;55.748;13.194;2023-05-20T04:41:09;8.40;99.10
11772;DHT22;12556;55.748;13.194;2023-05-20T04:43:36;8.50;99.10
11772;DHT22;12556;55.748;13.194;2023-05-20T04:46:04;8.70;99.10
11772;DHT22;12556;55.748;13.194;2023-05-20T04:48:31;8.90;99.10
11772;DHT22;12556;55.748;13.194;2023-05-20T04:51:00;8.90;99.00
11772;DHT22;12556;55.748;13.194;2023-05-20T04:53:27;9.20;99.00
11772;DHT22;12556;55.748;13.194;2023-05-20T04:55:55;9.10;98.80
11772;DHT22;12556;55.748;13.194;2023-05-20T04:58:22;9.30;98.80
11772;DHT22;12556;55.748;13.194;2023-05-20T05:00:50;9.40;98.70
11772;DHT22;12556;55.748;13.194;2023-05-20T05:03:17;9.50;98.60
11772;DHT22;12556;55.748;13.194;2023-05-20T05:05:44;9.60;98.60
11772;DHT22;12556;55.748;13.194;2023-05-20T05:08:13;9.70;98.60
11772;DHT22;12556;55.748;13.194;2023-05-20T05:10:41;9.90;98.50
11772;DHT22;12556;55.748;13.194;2023-05-20T05:13:08;10.10;97.80
11772;DHT22;12556;55.748;13.194;2023-05-20T05:15:35;10.30;97.70
11772;DHT22;12556;55.748;13.194;2023-05-20T05:18:02;10.40;97.50
11772;DHT22;12556;55.748;13.194;2023-05-20T05:20:29;10.60;97.40
11772;DHT22;12556;55.748;13.194;2023-05-20T05:22:56;10.90;97.10
11772;DHT22;12556;55.748;13.194;2023-05-20T05:25:24;11.00;96.90
11772;DHT22;12556;55.748;13.194;2023-05-20T05:27:51;11.20;96.70
11772;DHT22;12556;55.748;13.194;2023-05-20T05:30:20;11.40;96.50
11772;DHT22;12556;55.748;13.194;2023-05-20T05:32:47;11.50;96.10
11772;DHT22;12556;55.748;13.194;2023-05-20T05:35:14;11.70;96.00
11772;DHT22;12556;55.748;13.194;2023-05-20T05:37:41;11.90;95.90
11772;DHT22;12556;55.748;13.194;2023-05-20T05:40:09;12.00;95.80
11772;DHT22;12556;55.748;13.194;2023-05-20T05:42:37;12.20;95.80
11772;DHT22;12556;55.748;13.194;2023-05-20T05:45:05;12.30;95.70
11772;DHT22;12556;55.748;13.194;2023-05-20T05:47:33;12.50;95.70
11772;DHT22;12556;55.748;13.194;2023-05-20T05:50:00;12.60;95.40
11772;DHT22;12556;55.748;13.194;2023-05-20T05:52:27;12.80;95.40
11772;DHT22;12556;55.748;13.194;2023-05-20T05:54:53;12.80;95.40
11772;DHT22;12556;55.748;13.194;2023-05-20T05:57:21;13.00;95.30
11772;DHT22;12556;55.748;13.194;2023-05-20T05:59:49;13.20;95.20
11772;DHT22;12556;55.748;13.194;2023-05-20T06:02:16;13.40;95.40
11772;DHT22;12556;55.748;13.194;2023-05-20T06:04:43;13.50;95.20
11772;DHT22;12556;55.748;13.194;2023-05-20T06:07:10;13.70;95.10
11772;DHT22;12556;55.748;13.194;2023-05-20T06:09:37;13.90;94.90
11772;DHT22;12556;55.748;13.194;2023-05-20T06:12:04;14.10;94.70
11772;DHT22;12556;55.748;13.194;2023-05-20T06:14:31;14.20;94.40
11772;DHT22;12556;55.748;13.194;2023-05-20T06:17:00;14.40;94.20
11772;DHT22;12556;55.748;13.194;2023-05-20T06:19:27;14.50;94.00
11772;DHT22;12556;55.748;13.194;2023-05-20T06:21:55;14.60;94.00
11772;DHT22;12556;55.748;13.194;2023-05-20T06:24:22;14.90;94.00
11772;DHT22;12556;55.748;13.194;2023-05-20T06:26:49;14.90;93.70
11772;DHT22;12556;55.748;13.194;2023-05-20T06:29:16;15.10;93.70
11772;DHT22;12556;55.748;13.194;2023-05-20T06:31:43;15.20;93.70
11772;DHT22;12556;55.748;13.194;2023-05-20T06:34:12;15.40;93.60
11772;DHT22;12556;55.748;13.194;2023-05-20T06:36:39;15.60;93.50
11772;DHT22;12556;55.748;13.194;2023-05-20T06:39:06;15.80;93.30
11772;DHT22;12556;55.748;13.194;2023-05-20T06:41:37;15.90;93.00
11772;DHT22;12556;55.748;13.194;2023-05-20T06:44:04;16.00;92.80
11772;DHT22;12556;55.748;13.194;2023-05-20T06:46:31;16.20;92.50
11772;DHT22;12556;55.748;13.194;2023-05-20T06:48:58;16.30;92.40
11772;DHT22;12556;55.748;13.194;2023-05-20T06:51:27;16.50;92.60
11772;DHT22;12556;55.748;13.194;2023-05-20T06:53:54;16.70;92.70
11772;DHT22;12556;55.748;13.194;2023-05-20T06:56:21;16.90;92.50
11772;DHT22;12556;55.748;13.194;2023-05-20T06:58:48;17.10;92.50
11772;DHT22;12556;55.748;13.194;2023-05-20T07:01:15;17.20;91.90
11772;DHT22;12556;55.748;13.194;2023-05-20T07:03:41;17.30;91.80
11772;DHT22;12556;55.748;13.194;2023-05-20T07:06:09;17.40;91.80
11772;DHT22;12556;55.748;13.194;2023-05-20T07:08:37;17.60;91.60
11772;DHT22;12556;55.748;13.194;2023-05-20T07:11:04;17.60;91.40
11772;DHT22;12556;55.748;13.194;2023-05-20T07:13:31;17.80;91.30
11772;DHT22;12556;55.748;13.194;2023-05-20T07:15:58;17.90;91.10
11772;DHT22;12556;55.748;13.194;2023-05-20T07:18:25;18.10;91.00
11772;DHT22;12556;55.748;13.194;2023-05-20T07:20:53;18.30;90.70
11772;DHT22;12556;55.748;13.194;2023-05-20T07:23:21;18.50;90.20
11772;DHT22;12556;55.748;13.194;2023-05-20T07:25:49;18.60;90.10
11772;DHT22;12556;55.748;13.194;2023-05-20T07:28:16;18.60;89.60
11772;DHT22;12556;55.748;13.194;2023-05-20T07:30:43;18.60;89.50
11772;DHT22;12556;55.748;13.194;2023-05-20T07:33:14;18.80;89.20
11772;DHT22;12556;55.748;13.194;2023-05-20T07:35:41;19.00;88.90
11772;DHT22;12556;55.748;13.194;2023-05-20T07:38:10;19.10;87.90
11772;DHT22;12556;55.748;13.194;2023-05-20T07:40:37;19.30;87.00
11772;DHT22;12556;55.748;13.194;2023-05-20T07:43:06;19.40;85.40
11772;DHT22;12556;55.748;13.194;2023-05-20T07:45:34;19.40;84.90
11772;DHT22;12556;55.748;13.194;2023-05-20T07:48:02;19.50;84.70
11772;DHT22;12556;55.748;13.194;2023-05-20T07:50:29;19.50;85.20
11772;DHT22;12556;55.748;13.194;2023-05-20T07:52:56;19.60;84.00
11772;DHT22;12556;55.748;13.194;2023-05-20T07:55:23;19.70;83.50
11772;DHT22;12556;55.748;13.194;2023-05-20T07:57:50;19.80;82.90
11772;DHT22;12556;55.748;13.194;2023-05-20T08:00:19;20.00;82.60
11772;DHT22;12556;55.748;13.194;2023-05-20T08:02:46;20.10;81.00
11772;DHT22;12556;55.748;13.194;2023-05-20T08:05:13;20.30;79.60
11772;DHT22;12556;55.748;13.194;2023-05-20T08:07:40;20.30;79.40
11772;DHT22;12556;55.748;13.194;2023-05-20T08:10:08;20.30;79.10
11772;DHT22;12556;55.748;13.194;2023-05-20T08:12:35;20.40;79.00
11772;DHT22;12556;55.748;13.194;2023-05-20T08:15:03;20.60;79.00
11772;DHT22;12556;55.748;13.194;2023-05-20T08:17:31;20.80;78.90
11772;DHT22;12556;55.748;13.194;2023-05-20T08:19:58;21.00;78.10
11772;DHT22;12556;55.748;13.194;2023-05-20T08:22:25;21.20;77.50
11772;DHT22;12556;55.748;13.194;2023-05-20T08:24:52;21.20;76.00
11772;DHT22;12556;55.748;13.194;2023-05-20T08:27:19;21.30;75.00
11772;DHT22;12556;55.748;13.194;2023-05-20T08:29:46;21.40;74.50
11772;DHT22;12556;55.748;13.194;2023-05-20T08:32:13;21.60;74.00
11772;DHT22;12556;55.748;13.194;2023-05-20T08:34:41;21.70;72.80
11772;DHT22;12556;55.748;13.194;2023-05-20T08:37:08;21.90;72.30
11772;DHT22;12556;55.748;13.194;2023-05-20T08:39:35;22.10;71.90
11772;DHT22;12556;55.748;13.194;2023-05-20T08:42:03;22.10;71.30
11772;DHT22;12556;55.748;13.194;2023-05-20T08:44:32;22.20;70.90
11772;DHT22;12556;55.748;13.194;2023-05-20T08:47:00;22.20;70.70
11772;DHT22;12556;55.748;13.194;2023-05-20T08:49:28;22.10;70.40
11772;DHT22;12556;55.748;13.194;2023-05-20T08:51:57;22.10;70.30
11772;DHT22;12556;55.748;13.194;2023-05-20T08:54:29;22.10;69.60
11772;DHT22;12556;55.748;13.194;2023-05-20T08:56:57;22.10;69.40
11772;DHT22;12556;55.748;13.194;2023-05-20T08:59:25;22.20;69.00
11772;DHT22;12556;55.748;13.194;2023-05-20T09:01:52;22.40;68.70
11772;DHT22;12556;55.748;13.194;2023-05-20T09:04:19;22.40;68.30
11772;DHT22;12556;55.748;13.194;2023-05-20T09:06:46;22.50;67.40
11772;DHT22;12556;55.748;13.194;2023-05-20T09:09:15;22.40;67.50
11772;DHT22;12556;55.748;13.194;2023-05-20T09:11:42;22.60;66.70
11772;DHT22;12556;55.748;13.194;2023-05-20T09:14:09;22.80;66.60
11772;DHT22;12556;55.748;13.194;2023-05-20T09:16:38;23.00;64.50
11772;DHT22;12556;55.748;13.194;2023-05-20T09:19:06;22.80;64.70
11772;DHT22;12556;55.748;13.194;2023-05-20T09:21:34;22.80;64.80
11772;DHT22;12556;55.748;13.194;2023-05-20T09:24:01;22.90;64.60
11772;DHT22;12556;55.748;13.194;2023-05-20T09:26:30;23.00;64.60
11772;DHT22;12556;55.748;13.194;2023-05-20T09:28:57;22.90;64.50
11772;DHT22;12556;55.748;13.194;2023-05-20T09:31:25;22.80;64.90
11772;DHT22;12556;55.748;13.194;2023-05-20T09:33:53;23.10;64.90
11772;DHT22;12556;55.748;13.194;2023-05-20T09:36:22;23.30;63.50
11772;DHT22;12556;55.748;13.194;2023-05-20T09:38:51;23.50;62.60
11772;DHT22;12556;55.748;13.194;2023-05-20T09:41:21;23.70;62.10
11772;DHT22;12556;55.748;13.194;2023-05-20T09:43:51;23.90;61.90
11772;DHT22;12556;55.748;13.194;2023-05-20T09:46:19;24.10;61.20
11772;DHT22;12556;55.748;13.194;2023-05-20T09:48:47;24.10;60.60
11772;DHT22;12556;55.748;13.194;2023-05-20T09:51:14;24.20;60.60
11772;DHT22;12556;55.748;13.194;2023-05-20T09:53:42;24.30;60.00
11772;DHT22;12556;55.748;13.194;2023-05-20T09:56:09;24.20;58.80
11772;DHT22;12556;55.748;13.194;2023-05-20T09:58:37;24.20;58.30
11772;DHT22;12556;55.748;13.194;2023-05-20T10:01:06;24.40;58.20
11772;DHT22;12556;55.748;13.194;2023-05-20T10:03:33;24.40;57.60
11772;DHT22;12556;55.748;13.194;2023-05-20T10:06:27;24.40;57.70
11772;DHT22;12556;55.748;13.194;2023-05-20T10:09:13;24.50;57.20
11772;DHT22;12556;55.748;13.194;2023-05-20T10:11:47;24.60;57.40
11772;DHT22;12556;55.748;13.194;2023-05-20T10:14:27;24.80;57.40
11772;DHT22;12556;55.748;13.194;2023-05-20T10:17:08;24.90;57.00
11772;DHT22;12556;55.748;13.194;2023-05-20T10:19:36;25.00;56.50
11772;DHT22;12556;55.748;13.194;2023-05-20T10:22:05;24.80;56.10
11772;DHT22;12556;55.748;13.194;2023-05-20T10:24:35;24.80;56.60
11772;DHT22;12556;55.748;13.194;2023-05-20T10:27:04;24.80;55.30
11772;DHT22;12556;55.748;13.194;2023-05-20T10:29:43;24.90;54.50
11772;DHT22;12556;55.748;13.194;2023-05-20T10:32:23;25.00;53.60
11772;DHT22;12556;55.748;13.194;2023-05-20T10:34:50;24.80;52.90
11772;DHT22;12556;55.748;13.194;2023-05-20T10:37:22;24.90;53.50
11772;DHT22;12556;55.748;13.194;2023-05-20T10:39:50;25.20;52.80
11772;DHT22;12556;55.748;13.194;2023-05-20T10:42:27;25.20;51.70
11772;DHT22;12556;55.748;13.194;2023-05-20T10:44:54;25.20;51.60
11772;DHT22;12556;55.748;13.194;2023-05-20T10:47:22;25.00;51.30
11772;DHT22;12556;55.748;13.194;2023-05-20T10:49:49;25.00;51.10
11772;DHT22;12556;55.748;13.194;2023-05-20T10:52:16;24.90;51.40
11772;DHT22;12556;55.748;13.194;2023-05-20T10:54:45;24.80;50.80
11772;DHT22;12556;55.748;13.194;2023-05-20T10:57:12;24.90;51.10
11772;DHT22;12556;55.748;13.194;2023-05-20T10:59:40;24.90;50.20
11772;DHT22;12556;55.748;13.194;2023-05-20T11:02:09;24.80;50.00
11772;DHT22;12556;55.748;13.194;2023-05-20T11:04:38;24.80;50.20
11772;DHT22;12556;55.748;13.194;2023-05-20T11:07:06;24.80;50.20
11772;DHT22;12556;55.748;13.194;2023-05-20T11:09:33;24.80;49.90
11772;DHT22;12556;55.748;13.194;2023-05-20T11:12:00;24.90;49.90
11772;DHT22;12556;55.748;13.194;2023-05-20T11:14:27;24.90;50.00
11772;DHT22;12556;55.748;13.194;2023-05-20T11:16:55;25.10;49.80
11772;DHT22;12556;55.748;13.194;2023-05-20T11:19:23;25.20;49.20
11772;DHT22;12556;55.748;13.194;2023-05-20T11:21:52;25.40;48.90
11772;DHT22;12556;55.748;13.194;2023-05-20T11:24:24;25.50;49.10
11772;DHT22;12556;55.748;13.194;2023-05-20T11:26:52;25.60;48.60
11772;DHT22;12556;55.748;13.194;2023-05-20T11:29:19;25.40;48.60
11772;DHT22;12556;55.748;13.194;2023-05-20T11:31:48;25.40;48.80
11772;DHT22;12556;55.748;13.194;2023-05-20T11:34:31;25.50;48.40
11772;DHT22;12556;55.748;13.194;2023-05-20T11:37:18;25.60;48.00
11772;DHT22;12556;55.748;13.194;2023-05-20T11:39:48;25.60;47.10
11772;DHT22;12556;55.748;13.194;2023-05-20T11:42:32;25.20;46.70
11772;DHT22;12556;55.748;13.194;2023-05-20T11:45:03;25.40;47.30
11772;DHT22;12556;55.748;13.194;2023-05-20T11:47:31;25.30;47.50
11772;DHT22;12556;55.748;13.194;2023-05-20T11:52:32;25.50;46.50
11772;DHT22;12556;55.748;13.194;2023-05-20T11:55:05;25.60;46.70
11772;DHT22;12556;55.748;13.194;2023-05-20T11:57:37;25.50;46.30
11772;DHT22;12556;55.748;13.194;2023-05-20T12:00:06;25.50;46.60
11772;DHT22;12556;55.748;13.194;2023-05-20T12:02:39;25.60;46.30
11772;DHT22;12556;55.748;13.194;2023-05-20T12:07:53;25.80;45.30
11772;DHT22;12556;55.748;13.194;2023-05-20T12:12:53;25.80;45.10
11772;DHT22;12556;55.748;13.194;2023-05-20T12:15:22;25.50;45.90
11772;DHT22;12556;55.748;13.194;2023-05-20T12:17:51;25.60;46.00
11772;DHT22;12556;55.748;13.194;2023-05-20T12:20:23;25.80;45.40
11772;DHT22;12556;55.748;13.194;2023-05-20T12:22:51;25.80;45.20
11772;DHT22;12556;55.748;13.194;2023-05-20T12:25:19;25.90;45.30
11772;DHT22;12556;55.748;13.194;2023-05-20T12:27:47;26.00;44.80
11772;DHT22;12556;55.748;13.194;2023-05-20T12:30:16;26.00;44.50
11772;DHT22;12556;55.748;13.194;2023-05-20T12:32:43;25.80;44.60
11772;DHT22;12556;55.748;13.194;2023-05-20T12:35:11;25.70;45.10
11772;DHT22;12556;55.748;13.194;2023-05-20T12:37:40;25.80;45.00
11772;DHT22;12556;55.748;13.194;2023-05-20T12:40:10;25.90;44.70
11772;DHT22;12556;55.748;13.194;2023-05-20T12:42:38;26.00;44.00
11772;DHT22;12556;55.748;13.194;2023-05-20T12:45:06;25.90;44.00
11772;DHT22;12556;55.748;13.194;2023-05-20T12:47:34;25.80;44.40
11772;DHT22;12556;55.748;13.194;2023-05-20T12:50:02;25.80;44.30
11772;DHT22;12556;55.748;13.194;2023-05-20T12:52:29;25.60;43.90
11772;DHT22;12556;55.748;13.194;2023-05-20T12:54:56;25.60;44.10
11772;DHT22;12556;55.748;13.194;2023-05-20T12:57:25;25.50;43.70
11772;DHT22;12556;55.748;13.194;2023-05-20T12:59:52;25.40;43.60
11772;DHT22;12556;55.748;13.194;2023-05-20T13:02:19;25.30;43.80
11772;DHT22;12556;55.748;13.194;2023-05-20T13:04:46;25.30;44.60
11772;DHT22;12556;55.748;13.194;2023-05-20T13:07:13;25.40;44.40
11772;DHT22;12556;55.748;13.194;2023-05-20T13:09:40;25.30;44.10
11772;DHT22;12556;55.748;13.194;2023-05-20T13:12:07;25.30;44.00
11772;DHT22;12556;55.748;13.194;2023-05-20T13:14:36;25.30;43.70
11772;DHT22;12556;55.748;13.194;2023-05-20T13:17:03;25.20;43.90
11772;DHT22;12556;55.748;13.194;2023-05-20T13:19:30;25.20;44.20
11772;DHT22;12556;55.748;13.194;2023-05-20T13:21:57;25.20;44.30
11772;DHT22;12556;55.748;13.194;2023-05-20T13:24:24;25.10;44.50
11772;DHT22;12556;55.748;13.194;2023-05-20T13:26:51;24.80;44.80
11772;DHT22;12556;55.748;13.194;2023-05-20T13:29:18;24.60;45.10
11772;DHT22;12556;55.748;13.194;2023-05-20T13:31:46;24.70;45.40
11772;DHT22;12556;55.748;13.194;2023-05-20T13:34:14;24.70;45.20
11772;DHT22;12556;55.748;13.194;2023-05-20T13:36:41;24.70;45.80
11772;DHT22;12556;55.748;13.194;2023-05-20T13:39:08;25.00;45.60
11772;DHT22;12556;55.748;13.194;2023-05-20T13:41:35;25.10;45.00
11772;DHT22;12556;55.748;13.194;2023-05-20T13:44:02;25.00;44.60
11772;DHT22;12556;55.748;13.194;2023-05-20T13:46:29;24.80;44.70
11772;DHT22;12556;55.748;13.194;2023-05-20T13:48:58;24.60;44.80
11772;DHT22;12556;55.748;13.194;2023-05-20T13:51:25;24.50;44.70
11772;DHT22;12556;55.748;13.194;2023-05-20T13:53:52;24.40;45.00
11772;DHT22;12556;55.748;13.194;2023-05-20T13:56:19;24.40;45.40
11772;DHT22;12556;55.748;13.194;2023-05-20T13:58:46;24.40;45.00
11772;DHT22;12556;55.748;13.194;2023-05-20T14:01:13;24.40;45.00
11772;DHT22;12556;55.748;13.194;2023-05-20T14:03:40;24.30;44.70
11772;DHT22;12556;55.748;13.194;2023-05-20T14:06:09;24.10;44.90
11772;DHT22;12556;55.748;13.194;2023-05-20T14:08:38;24.00;45.20
11772;DHT22;12556;55.748;13.194;2023-05-20T14:11:09;23.90;45.30
11772;DHT22;12556;55.748;13.194;2023-05-20T14:13:37;24.00;45.80
11772;DHT22;12556;55.748;13.194;2023-05-20T14:16:05;24.00;45.40
11772;DHT22;12556;55.748;13.194;2023-05-20T14:18:32;23.80;45.30
11772;DHT22;12556;55.748;13.194;2023-05-20T14:20:59;23.80;45.60
11772;DHT22;12556;55.748;13.194;2023-05-20T14:23:27;23.60;45.80
11772;DHT22;12556;55.748;13.194;2023-05-20T14:25:54;23.40;45.90
11772;DHT22;12556;55.748;13.194;2023-05-20T14:28:21;23.30;45.90
11772;DHT22;12556;55.748;13.194;2023-05-20T14:30:48;23.20;46.10
11772;DHT22;12556;55.748;13.194;2023-05-20T14:33:15;23.20;46.30
11772;DHT22;12556;55.748;13.194;2023-05-20T14:35:42;23.20;46.20
11772;DHT22;12556;55.748;13.194;2023-05-20T14:38:09;23.10;46.50
11772;DHT22;12556;55.748;13.194;2023-05-20T14:40:38;23.10;46.80
11772;DHT22;12556;55.748;13.194;2023-05-20T14:43:05;23.20;46.90
11772;DHT22;12556;55.748;13.194;2023-05-20T14:45:31;23.20;46.60
11772;DHT22;12556;55.748;13.194;2023-05-20T14:47:59;23.10;46.80
11772;DHT22;12556;55.748;13.194;2023-05-20T14:50:25;23.00;46.80
11772;DHT22;12556;55.748;13.194;2023-05-20T14:52:52;23.10;47.00
11772;DHT22;12556;55.748;13.194;2023-05-20T14:55:19;23.10;46.90
11772;DHT22;12556;55.748;13.194;2023-05-20T14:57:48;22.90;46.80
11772;DHT22;12556;55.748;13.194;2023-05-20T15:00:15;22.90;47.40
11772;DHT22;12556;55.748;13.194;2023-05-20T15:02:42;22.80;47.20
11772;DHT22;12556;55.748;13.194;2023-05-20T15:05:09;22.80;47.40
11772;DHT22;12556;55.748;13.194;2023-05-20T15:07:37;22.80;47.50
11772;DHT22;12556;55.748;13.194;2023-05-20T15:10:04;22.80;47.80
11772;DHT22;12556;55.748;13.194;2023-05-20T15:12:32;22.80;47.60
11772;DHT22;12556;55.748;13.194;2023-05-20T15:15:00;22.60;47.60
11772;DHT22;12556;55.748;13.194;2023-05-20T15:17:27;22.50;47.90
11772;DHT22;12556;55.748;13.194;2023-05-20T15:19:54;22.40;47.90
11772;DHT22;12556;55.748;13.194;2023-05-20T15:22:21;22.40;48.10
11772;DHT22;12556;55.748;13.194;2023-05-20T15:24:52;22.30;48.10
11772;DHT22;12556;55.748;13.194;2023-05-20T15:27:22;22.30;48.30
11772;DHT22;12556;55.748;13.194;2023-05-20T15:29:50;22.40;47.90
11772;DHT22;12556;55.748;13.194;2023-05-20T15:34:49;22.20;46.80